createdAt,value
2023-03-17T00:02:12.955Z,60.05
2023-03-17T00:04:43.017Z,60.14
2023-03-17T00:07:13.729Z,60.01
2023-03-17T00:09:43.291Z,60.13
2023-03-17T00:12:13.209Z,59.93
2023-03-17T00:14:44.711Z,59.93
2023-03-17T00:17:14.340Z,59.96
2023-03-17T00:19:44.787Z,60.91
2023-03-17T00:22:17.039Z,60.42
2023-03-17T00:24:46.587Z,60.18
2023-03-17T00:27:17.131Z,60.16
2023-03-17T00:29:47.204Z,60.37
2023-03-17T00:32:17.132Z,60.22
2023-03-17T00:34:46.716Z,60.05
2023-03-17T00:37:17.473Z,60.00
2023-03-17T00:39:47.081Z,60.14
2023-03-17T00:42:16.269Z,60.02
2023-03-17T00:44:47.130Z,60.00
2023-03-17T00:47:16.446Z,59.75
2023-03-17T00:49:46.684Z,59.88
2023-03-17T00:52:15.686Z,60.11
2023-03-17T00:54:47.001Z,60.16
2023-03-17T00:57:16.003Z,60.28
2023-03-17T00:59:45.314Z,60.23
2023-03-17T01:02:14.670Z,60.35
2023-03-17T01:04:49.925Z,60.27
2023-03-17T01:07:22.602Z,60.04
2023-03-17T01:09:53.386Z,60.13
2023-03-17T01:12:22.366Z,60.14
2023-03-17T01:14:51.787Z,60.18
2023-03-17T01:17:20.783Z,60.22
2023-03-17T01:19:50.178Z,60.18
2023-03-17T01:22:19.174Z,60.59
2023-03-17T01:24:48.784Z,60.29
2023-03-17T01:27:19.267Z,60.12
2023-03-17T01:29:48.700Z,60.15
2023-03-17T01:32:17.729Z,60.27
2023-03-17T01:34:47.498Z,60.36
2023-03-17T01:37:16.503Z,59.96
2023-03-17T01:39:45.832Z,60.28
2023-03-17T01:42:14.853Z,60.34
2023-03-17T01:44:59.690Z,60.47
2023-03-17T01:47:32.135Z,60.43
2023-03-17T01:50:02.360Z,60.02
2023-03-17T01:52:31.396Z,60.50
2023-03-17T01:55:01.534Z,60.34
2023-03-17T01:57:31.558Z,60.26
2023-03-17T02:00:01.742Z,59.97
2023-03-17T02:02:32.704Z,60.22
2023-03-17T02:05:02.779Z,60.08
2023-03-17T02:07:31.856Z,59.98
2023-03-17T02:10:01.154Z,59.88
2023-03-17T02:12:30.822Z,59.93
2023-03-17T02:15:00.477Z,60.01
2023-03-17T02:17:29.876Z,59.89
2023-03-17T02:20:11.642Z,60.02
2023-03-17T02:22:42.343Z,60.08
2023-03-17T02:25:11.641Z,59.93
2023-03-17T02:27:41.717Z,59.88
2023-03-17T02:30:12.004Z,59.86
2023-03-17T02:32:41.161Z,59.82
2023-03-17T02:35:10.955Z,59.92
2023-03-17T02:37:42.015Z,60.07
2023-03-17T02:40:13.612Z,60.04
2023-03-17T02:42:42.607Z,60.06
2023-03-17T02:45:12.770Z,59.79
2023-03-17T02:47:42.365Z,59.83
2023-03-17T02:50:13.483Z,59.75
2023-03-17T02:52:43.891Z,59.89
2023-03-17T02:55:13.241Z,60.00
2023-03-17T02:57:42.363Z,60.09
2023-03-17T03:00:12.304Z,60.03
2023-03-17T03:02:41.534Z,59.62
2023-03-17T03:05:11.608Z,59.86
2023-03-17T03:07:40.593Z,59.83
2023-03-17T03:10:12.258Z,59.75
2023-03-17T03:12:41.798Z,59.96
2023-03-17T03:15:11.664Z,59.89
2023-03-17T03:17:40.677Z,60.15
2023-03-17T03:20:13.113Z,59.83
2023-03-17T03:22:42.191Z,59.84
2023-03-17T03:25:13.003Z,59.91
2023-03-17T03:27:42.261Z,59.93
2023-03-17T03:30:12.227Z,59.61
2023-03-17T03:32:41.210Z,59.88
2023-03-17T03:35:10.825Z,59.76
2023-03-17T03:37:40.094Z,60.04
2023-03-17T03:40:10.162Z,59.81
2023-03-17T03:42:41.038Z,59.81
2023-03-17T03:45:11.106Z,59.58
2023-03-17T03:47:40.152Z,59.79
2023-03-17T03:50:10.725Z,60.11
2023-03-17T03:52:40.105Z,60.02
2023-03-17T03:55:09.677Z,60.07
2023-03-17T03:57:38.715Z,59.90
2023-03-17T04:00:11.279Z,59.69
2023-03-17T04:02:40.406Z,59.89
2023-03-17T04:05:09.910Z,59.71
2023-03-17T04:07:38.943Z,59.83
2023-03-17T04:10:08.892Z,60.03
2023-03-17T04:12:37.962Z,59.92
2023-03-17T04:15:09.191Z,59.73
2023-03-17T04:17:39.723Z,59.72
2023-03-17T04:20:09.691Z,60.10
2023-03-17T04:22:39.051Z,59.89
2023-03-17T04:25:08.804Z,60.15
2023-03-17T04:27:37.897Z,59.87
2023-03-17T04:30:07.668Z,60.09
2023-03-17T04:32:36.723Z,60.08
2023-03-17T04:35:09.237Z,60.29
2023-03-17T04:37:38.979Z,60.43
2023-03-17T04:40:10.106Z,60.00
2023-03-17T04:42:39.556Z,60.45
2023-03-17T04:45:10.266Z,59.85
2023-03-17T04:47:39.578Z,60.07
2023-03-17T04:50:11.642Z,60.00
2023-03-17T04:52:40.741Z,60.30
2023-03-17T04:55:11.969Z,60.21
2023-03-17T04:57:41.128Z,60.45
2023-03-17T05:00:12.782Z,60.32
2023-03-17T05:02:41.925Z,60.37
2023-03-17T05:05:13.873Z,60.29
2023-03-17T05:07:44.932Z,60.32
2023-03-17T05:10:14.467Z,60.33
2023-03-17T05:12:43.522Z,60.38
2023-03-17T05:15:13.058Z,60.59
2023-03-17T05:17:42.228Z,60.46
2023-03-17T05:20:13.779Z,60.49
2023-03-17T05:22:42.783Z,60.32
2023-03-17T05:25:12.179Z,60.48
2023-03-17T05:27:41.619Z,60.24
2023-03-17T05:30:11.423Z,60.38
2023-03-17T05:32:40.505Z,60.22
2023-03-17T05:35:10.358Z,60.37
2023-03-17T05:37:40.917Z,60.80
2023-03-17T05:40:10.876Z,60.67
2023-03-17T05:42:40.097Z,60.67
2023-03-17T05:45:10.217Z,60.49
2023-03-17T05:47:39.291Z,60.63
2023-03-17T05:50:09.493Z,60.62
2023-03-17T05:52:38.691Z,60.55
2023-03-17T05:55:10.210Z,60.86
2023-03-17T05:57:39.359Z,60.49
2023-03-17T06:00:11.129Z,60.56
2023-03-17T06:02:41.890Z,60.86
2023-03-17T06:05:11.693Z,60.87
2023-03-17T06:07:53.154Z,60.56
2023-03-17T06:10:26.540Z,60.69
2023-03-17T06:12:55.799Z,60.72
2023-03-17T06:15:26.633Z,60.79
2023-03-17T06:17:55.768Z,60.82
2023-03-17T06:20:25.294Z,60.37
2023-03-17T06:23:04.003Z,60.99
2023-03-17T06:25:35.800Z,60.92
2023-03-17T06:28:05.677Z,60.62
2023-03-17T06:30:35.358Z,60.83
2023-03-17T06:33:04.657Z,61.20
2023-03-17T06:35:35.259Z,61.30
2023-03-17T06:38:05.357Z,61.31
2023-03-17T06:40:36.236Z,60.93
2023-03-17T06:43:05.250Z,61.29
2023-03-17T06:45:34.715Z,61.44
2023-03-17T06:48:03.799Z,61.57
2023-03-17T06:50:33.176Z,61.85
2023-03-17T06:53:02.292Z,61.35
2023-03-17T06:55:32.233Z,61.74
2023-03-17T06:58:03.343Z,62.02
2023-03-17T07:00:33.142Z,61.63
2023-03-17T07:03:03.135Z,61.63
2023-03-17T07:05:33.691Z,61.81
2023-03-17T07:08:02.951Z,61.75
2023-03-17T07:10:33.423Z,61.88
2023-03-17T07:13:05.181Z,62.04
2023-03-17T07:15:36.003Z,62.12
2023-03-17T07:18:05.288Z,62.00
2023-03-17T07:20:34.627Z,61.86
2023-03-17T07:23:03.945Z,62.46
2023-03-17T07:25:33.638Z,62.21
2023-03-17T07:28:04.924Z,62.34
2023-03-17T07:30:34.244Z,62.21
2023-03-17T07:33:04.358Z,62.30
2023-03-17T07:35:34.883Z,62.34
2023-03-17T07:38:04.321Z,62.35
2023-03-17T07:40:35.489Z,63.21
2023-03-17T07:43:09.113Z,63.08
2023-03-17T07:45:38.680Z,62.81
2023-03-17T07:48:08.641Z,63.22
2023-03-17T07:50:38.202Z,63.20
2023-03-17T07:53:07.263Z,63.35
2023-03-17T07:55:38.215Z,63.19
2023-03-17T07:58:09.493Z,63.43
2023-03-17T08:00:39.542Z,63.27
2023-03-17T08:03:10.704Z,63.57
2023-03-17T08:05:41.245Z,63.64
2023-03-17T08:08:10.812Z,63.88
2023-03-17T08:10:40.507Z,63.76
2023-03-17T08:13:10.965Z,63.76
2023-03-17T08:15:40.787Z,64.09
2023-03-17T08:18:09.800Z,63.40
2023-03-17T08:20:39.278Z,65.02
2023-03-17T08:23:08.668Z,64.12
2023-03-17T08:25:38.779Z,65.31
2023-03-17T08:28:08.088Z,64.93
2023-03-17T08:30:39.436Z,64.85
2023-03-17T08:33:09.170Z,64.80
2023-03-17T08:35:38.630Z,65.16
2023-03-17T08:38:07.961Z,64.75
2023-03-17T08:40:37.726Z,64.87
2023-03-17T08:43:07.859Z,64.70
2023-03-17T08:45:40.104Z,65.24
2023-03-17T08:48:09.715Z,65.24
2023-03-17T08:50:39.121Z,65.76
2023-03-17T08:53:08.849Z,65.62
2023-03-17T08:55:38.878Z,64.93
2023-03-17T08:58:07.878Z,65.24
2023-03-17T09:00:38.575Z,65.92
2023-03-17T09:03:08.678Z,65.07
2023-03-17T09:05:38.667Z,65.74
2023-03-17T09:08:07.863Z,65.50
2023-03-17T09:10:37.839Z,65.48
2023-03-17T09:13:07.001Z,64.96
2023-03-17T09:15:36.906Z,65.31
2023-03-17T09:18:07.633Z,65.66
2023-03-17T09:20:37.318Z,65.31
2023-03-17T09:23:08.147Z,64.88
2023-03-17T09:25:37.636Z,65.86
2023-03-17T09:28:07.314Z,66.23
2023-03-17T09:30:36.918Z,65.17
2023-03-17T09:33:07.353Z,65.11
2023-03-17T09:35:36.741Z,65.31
2023-03-17T09:38:06.214Z,65.34
2023-03-17T09:40:37.585Z,65.42
2023-03-17T09:43:12.327Z,64.91
2023-03-17T09:45:43.670Z,65.11
2023-03-17T09:48:30.186Z,65.26
2023-03-17T09:51:02.347Z,65.06
2023-03-17T09:53:34.280Z,65.22
2023-03-17T09:56:05.362Z,64.73
2023-03-17T09:58:34.366Z,64.65
2023-03-17T10:01:05.366Z,64.87
2023-03-17T10:03:37.682Z,64.38
2023-03-17T10:06:16.906Z,64.18
2023-03-17T10:08:47.649Z,64.33
2023-03-17T10:11:19.162Z,64.41
2023-03-17T10:13:50.761Z,64.27
2023-03-17T10:16:20.884Z,64.11
2023-03-17T10:18:53.625Z,64.24
2023-03-17T10:21:24.392Z,63.98
2023-03-17T10:23:53.484Z,63.98
2023-03-17T10:26:26.341Z,63.87
2023-03-17T10:28:56.047Z,63.71
2023-03-17T10:31:29.333Z,63.91
2023-03-17T10:34:00.446Z,63.70
2023-03-17T10:36:37.753Z,63.44
2023-03-17T10:39:07.400Z,63.63
2023-03-17T10:41:37.466Z,63.16
2023-03-17T10:44:09.736Z,63.03
2023-03-17T10:46:39.353Z,62.76
2023-03-17T10:49:10.984Z,62.75
2023-03-17T10:51:40.755Z,62.64
2023-03-17T10:54:10.755Z,62.34
2023-03-17T10:56:42.142Z,62.45
2023-03-17T10:59:16.550Z,62.33
2023-03-17T11:01:48.631Z,61.63
2023-03-17T11:04:25.110Z,62.08
2023-03-17T11:06:56.320Z,61.14
2023-03-17T11:09:26.285Z,61.38
2023-03-17T11:12:02.496Z,61.59
2023-03-17T11:14:31.675Z,61.13
2023-03-17T11:17:02.327Z,61.00
2023-03-17T11:19:36.452Z,60.95
2023-03-17T11:22:06.941Z,60.52
2023-03-17T11:24:40.786Z,60.95
2023-03-17T11:27:12.352Z,60.40
2023-03-17T11:29:44.707Z,60.40
2023-03-17T11:32:20.172Z,60.09
2023-03-17T11:34:53.836Z,59.54
2023-03-17T11:37:26.792Z,59.50
2023-03-17T11:39:57.759Z,59.66
2023-03-17T11:42:27.744Z,59.73
2023-03-17T11:45:10.390Z,59.50
2023-03-17T11:47:43.080Z,59.42
2023-03-17T11:50:17.836Z,59.16
2023-03-17T11:52:50.570Z,57.90
2023-03-17T11:55:21.733Z,58.56
2023-03-17T11:57:53.474Z,58.78
2023-03-17T12:00:24.261Z,58.45
2023-03-17T12:02:54.984Z,58.26
2023-03-17T12:05:26.114Z,57.87
2023-03-17T12:07:57.067Z,58.14
2023-03-17T12:10:28.889Z,58.35
2023-03-17T12:12:59.367Z,57.80
2023-03-17T12:15:29.952Z,57.57
2023-03-17T12:17:59.538Z,57.94
2023-03-17T12:20:32.627Z,57.34
2023-03-17T12:23:04.442Z,56.85
2023-03-17T12:25:34.122Z,56.88
2023-03-17T12:28:05.312Z,56.67
2023-03-17T12:30:35.539Z,56.20
2023-03-17T12:33:11.095Z,56.41
2023-03-17T12:35:41.692Z,56.57
2023-03-17T12:38:12.111Z,56.71
2023-03-17T12:40:45.884Z,56.78
2023-03-17T12:43:22.860Z,56.83
2023-03-17T12:45:58.353Z,56.44
2023-03-17T12:48:41.333Z,56.44
2023-03-17T12:51:14.432Z,56.14
2023-03-17T12:53:44.793Z,56.27
2023-03-17T12:56:18.170Z,54.13
2023-03-17T12:58:47.859Z,55.87
2023-03-17T13:01:18.681Z,55.64
2023-03-17T13:03:48.525Z,55.39
2023-03-17T13:06:20.975Z,55.04
2023-03-17T13:08:50.481Z,55.53
2023-03-17T13:11:20.410Z,55.03
2023-03-17T13:13:59.413Z,54.62
2023-03-17T13:16:29.509Z,54.73
2023-03-17T13:19:15.063Z,54.70
2023-03-17T13:21:50.096Z,52.66
2023-03-17T13:24:40.177Z,55.06
2023-03-17T13:27:12.132Z,54.56
2023-03-17T13:29:47.996Z,54.08
2023-03-17T13:32:36.359Z,53.42
2023-03-17T13:35:16.117Z,54.33
2023-03-17T13:38:02.069Z,54.21
2023-03-17T13:40:33.228Z,52.27
2023-03-17T13:43:09.661Z,53.52
2023-03-17T13:45:39.549Z,52.17
2023-03-17T13:48:33.194Z,52.32
2023-03-17T13:51:03.474Z,51.73
2023-03-17T13:53:35.170Z,52.31
2023-03-17T13:56:06.378Z,52.07
2023-03-17T13:58:36.423Z,51.00
2023-03-17T14:01:07.593Z,52.30
2023-03-17T14:03:39.180Z,52.26
2023-03-17T14:06:09.007Z,51.38
2023-03-17T14:08:40.994Z,51.98
2023-03-17T14:11:18.034Z,49.92
2023-03-17T14:13:48.375Z,51.11
2023-03-17T14:16:18.356Z,51.07
2023-03-17T14:18:49.820Z,51.07
2023-03-17T14:21:23.549Z,50.84
2023-03-17T14:23:55.945Z,49.17
2023-03-17T14:26:25.304Z,50.16
2023-03-17T14:28:54.366Z,50.48
2023-03-17T14:31:25.129Z,50.75
2023-03-17T14:33:55.929Z,49.41
2023-03-17T14:36:26.103Z,49.90
2023-03-17T14:38:57.219Z,49.91
2023-03-17T14:41:27.218Z,49.45
2023-03-17T14:43:58.738Z,49.86
2023-03-17T14:46:29.592Z,49.73
2023-03-17T14:48:59.488Z,49.40
2023-03-17T14:51:29.473Z,49.54
2023-03-17T14:54:01.120Z,47.54
2023-03-17T14:56:31.738Z,49.28
2023-03-17T14:59:05.985Z,49.08
2023-03-17T15:01:36.513Z,48.54
2023-03-17T15:06:37.491Z,49.44
2023-03-17T15:09:17.886Z,49.00
2023-03-17T15:11:47.648Z,49.17
2023-03-17T15:14:20.007Z,48.76
2023-03-17T15:16:50.967Z,49.02
2023-03-17T15:19:21.542Z,49.01
2023-03-17T15:21:51.102Z,49.18
2023-03-17T15:24:38.185Z,49.11
2023-03-17T15:27:14.873Z,49.38
2023-03-17T15:29:44.060Z,49.21
2023-03-17T15:32:14.253Z,49.32
2023-03-17T15:34:43.315Z,49.47
2023-03-17T15:37:22.708Z,49.51
2023-03-17T15:39:53.036Z,49.49
2023-03-17T15:42:24.856Z,50.01
2023-03-17T15:44:54.026Z,50.12
2023-03-17T15:47:23.966Z,49.50
2023-03-17T15:49:53.022Z,50.27
2023-03-17T15:52:25.147Z,49.63
2023-03-17T15:54:54.460Z,50.27
2023-03-17T15:57:25.572Z,50.27
2023-03-17T15:59:54.699Z,50.04
2023-03-17T16:02:27.557Z,50.22
2023-03-17T16:04:57.278Z,50.18
2023-03-17T16:07:26.735Z,50.01
2023-03-17T16:09:55.886Z,50.06
2023-03-17T16:12:26.669Z,50.44
2023-03-17T16:14:55.917Z,49.76
2023-03-17T16:17:26.992Z,50.35
2023-03-17T16:19:56.180Z,50.11
2023-03-17T16:22:37.637Z,50.06
2023-03-17T16:25:09.162Z,50.20
2023-03-17T16:27:39.899Z,50.66
2023-03-17T16:30:09.803Z,50.33
2023-03-17T16:32:39.201Z,50.23
2023-03-17T16:35:11.634Z,50.38
2023-03-17T16:37:41.043Z,50.09
2023-03-17T16:40:15.284Z,50.73
2023-03-17T16:42:46.177Z,50.69
2023-03-17T16:45:16.218Z,50.85
2023-03-17T16:47:45.538Z,50.55
2023-03-17T16:50:17.771Z,50.55
2023-03-17T16:52:47.156Z,50.91
2023-03-17T16:55:16.793Z,50.57
2023-03-17T16:57:47.871Z,50.74
2023-03-17T17:00:17.969Z,50.39
2023-03-17T17:02:49.588Z,50.60
2023-03-17T17:05:20.192Z,50.30
2023-03-17T17:07:50.171Z,50.50
2023-03-17T17:10:20.093Z,50.45
2023-03-17T17:12:51.060Z,50.20
2023-03-17T17:15:20.924Z,50.45
2023-03-17T17:17:51.709Z,50.39
2023-03-17T17:20:21.738Z,50.19
2023-03-17T17:22:51.226Z,50.52
2023-03-17T17:25:20.259Z,50.17
2023-03-17T17:27:51.263Z,50.38
2023-03-17T17:30:21.147Z,50.49
2023-03-17T17:32:50.600Z,50.45
2023-03-17T17:35:19.966Z,50.54
2023-03-17T17:37:49.315Z,50.32
2023-03-17T17:40:20.195Z,50.73
2023-03-17T17:42:51.552Z,50.43
2023-03-17T17:45:21.500Z,49.76
2023-03-17T17:47:51.108Z,50.76
2023-03-17T17:50:21.757Z,50.61
2023-03-17T17:53:36.154Z,50.51
2023-03-17T17:56:26.358Z,50.86
2023-03-17T17:58:57.424Z,50.62
2023-03-17T18:01:26.582Z,50.28
2023-03-17T18:03:56.084Z,51.02
2023-03-17T18:06:25.065Z,50.94
2023-03-17T18:08:55.335Z,50.75
2023-03-17T18:11:24.319Z,51.01
2023-03-17T18:13:53.679Z,50.96
2023-03-17T18:16:24.897Z,51.01
2023-03-17T18:18:54.275Z,51.04
2023-03-17T18:21:23.305Z,51.07
2023-03-17T18:23:55.298Z,51.21
2023-03-17T18:26:24.465Z,51.34
2023-03-17T18:28:54.054Z,51.45
2023-03-17T18:31:25.797Z,51.62
2023-03-17T18:33:55.529Z,51.65
2023-03-17T18:36:24.554Z,51.65
2023-03-17T18:38:53.911Z,51.42
2023-03-17T18:41:22.977Z,51.78
2023-03-17T18:43:52.311Z,51.64
2023-03-17T18:46:21.516Z,51.65
2023-03-17T18:48:54.437Z,51.58
2023-03-17T18:51:23.587Z,51.93
2023-03-17T18:53:52.991Z,51.74
2023-03-17T18:56:23.460Z,52.10
2023-03-17T18:58:52.755Z,52.00
2023-03-17T19:01:22.143Z,52.54
2023-03-17T19:03:51.591Z,52.35
2023-03-17T19:06:22.720Z,52.36
2023-03-17T19:08:52.335Z,52.05
2023-03-17T19:11:22.360Z,52.21
2023-03-17T19:13:52.656Z,52.47
2023-03-17T19:16:30.864Z,52.27
2023-03-17T19:19:01.080Z,52.58
2023-03-17T19:21:39.476Z,52.41
2023-03-17T19:24:21.511Z,52.38
2023-03-17T19:27:20.655Z,52.42
2023-03-17T19:30:22.890Z,52.62
2023-03-17T19:32:58.841Z,52.70
2023-03-17T19:35:31.687Z,52.81
2023-03-17T19:38:11.428Z,52.60
2023-03-17T19:40:40.990Z,52.63
2023-03-17T19:43:10.258Z,52.66
2023-03-17T19:45:39.724Z,52.83
2023-03-17T19:48:08.830Z,52.84
2023-03-17T19:50:45.463Z,53.00
2023-03-17T19:53:24.538Z,53.02
2023-03-17T19:56:02.344Z,52.92
2023-03-17T19:58:31.648Z,52.80
2023-03-17T20:01:01.726Z,52.86
2023-03-17T20:03:38.564Z,53.10
2023-03-17T20:06:09.183Z,52.92
2023-03-17T20:08:39.930Z,53.21
2023-03-17T20:11:09.378Z,53.23
2023-03-17T20:13:38.777Z,53.00
2023-03-17T20:16:09.906Z,53.32
2023-03-17T20:18:39.239Z,53.24
2023-03-17T20:21:12.819Z,53.03
2023-03-17T20:23:43.369Z,53.40
2023-03-17T20:26:18.440Z,53.24
2023-03-17T20:28:47.762Z,53.27
2023-03-17T20:31:17.293Z,53.30
2023-03-17T20:33:48.231Z,53.29
2023-03-17T20:36:17.670Z,53.39
2023-03-17T20:38:48.379Z,53.23
2023-03-17T20:41:18.524Z,53.15
2023-03-17T20:43:47.936Z,53.28
2023-03-17T20:46:17.907Z,53.37
2023-03-17T20:48:48.375Z,53.48
2023-03-17T20:51:17.843Z,53.51
2023-03-17T20:53:49.192Z,53.15
2023-03-17T20:56:20.221Z,53.21
2023-03-17T20:58:49.418Z,53.11
2023-03-17T21:01:21.225Z,53.56
2023-03-17T21:03:50.837Z,53.58
2023-03-17T21:06:20.839Z,53.55
2023-03-17T21:08:51.349Z,53.24
2023-03-17T21:11:23.183Z,53.39
2023-03-17T21:13:52.468Z,53.63
2023-03-17T21:16:22.611Z,53.65
2023-03-17T21:18:51.875Z,53.62
2023-03-17T21:21:21.858Z,53.21
2023-03-17T21:23:52.423Z,53.29
2023-03-17T21:26:21.897Z,53.37
2023-03-17T21:28:50.919Z,53.21
2023-03-17T21:31:20.420Z,53.23
2023-03-17T21:33:54.223Z,53.14
2023-03-17T21:36:41.052Z,53.40
2023-03-17T21:39:12.826Z,53.31
2023-03-17T21:41:52.180Z,53.33
2023-03-17T21:52:25.049Z,53.32
2023-03-17T21:58:43.137Z,53.25
2023-03-17T22:01:13.216Z,53.36
2023-03-17T22:03:42.443Z,53.31
2023-03-17T22:06:12.088Z,53.21
2023-03-17T22:08:41.250Z,53.08
2023-03-17T22:11:10.818Z,53.59
2023-03-17T22:13:41.524Z,53.32
2023-03-17T22:16:11.114Z,53.03
2023-03-17T22:18:40.296Z,53.12
2023-03-17T22:21:10.306Z,53.15
2023-03-17T22:23:53.467Z,53.02
2023-03-17T22:26:31.001Z,53.41
2023-03-17T22:29:03.250Z,53.57
2023-03-17T22:31:34.903Z,53.34
2023-03-17T22:34:05.760Z,53.43
2023-03-17T22:36:35.241Z,53.33
2023-03-17T22:39:05.626Z,53.25
2023-03-17T22:41:35.074Z,53.28
2023-03-17T22:44:05.508Z,53.16
2023-03-17T22:46:34.822Z,53.46
2023-03-17T22:49:03.917Z,53.44
2023-03-17T22:51:33.498Z,53.07
2023-03-17T22:54:02.526Z,53.24
2023-03-17T22:56:31.891Z,53.27
2023-03-17T22:59:01.054Z,53.11
2023-03-17T23:01:32.000Z,53.25
2023-03-17T23:04:01.154Z,53.33
2023-03-17T23:06:30.593Z,53.30
2023-03-17T23:08:59.629Z,53.58
2023-03-17T23:11:29.395Z,52.99
2023-03-17T23:13:58.673Z,53.13
2023-03-17T23:16:28.104Z,53.50
2023-03-17T23:18:58.550Z,53.47
2023-03-17T23:21:30.779Z,53.53
2023-03-17T23:23:59.932Z,53.23
2023-03-17T23:26:29.287Z,53.32
2023-03-17T23:28:58.327Z,53.50
2023-03-17T23:31:27.688Z,53.09
2023-03-17T23:33:56.767Z,52.95
2023-03-17T23:36:27.804Z,52.90
2023-03-17T23:38:56.862Z,53.10
2023-03-17T23:41:26.281Z,52.87
2023-03-17T23:43:55.396Z,52.84
2023-03-17T23:46:24.775Z,52.95
2023-03-17T23:49:02.901Z,52.92
2023-03-17T23:51:33.760Z,52.98
2023-03-17T23:54:02.773Z,52.69
2023-03-17T23:56:32.460Z,52.83
2023-03-17T23:59:01.794Z,52.77
